sensor_id;sensor_type;location;lat;lon;timestamp;temperature;humidity
6270;DHT22;3168;51.684;6.954;2023-04-01T00:01:46;9.80;48.20
6270;DHT22;3168;51.684;6.954;2023-04-01T00:04:12;9.80;48.30
6270;DHT22;3168;51.684;6.954;2023-04-01T00:06:38;9.80;43.90
6270;DHT22;3168;51.684;6.954;2023-04-01T00:09:04;9.80;39.80
6270;DHT22;3168;51.684;6.954;2023-04-01T00:11:29;9.90;38.80
6270;DHT22;3168;51.684;6.954;2023-04-01T00:13:55;9.90;38.80
6270;DHT22;3168;51.684;6.954;2023-04-01T00:16:21;9.90;38.80
6270;DHT22;3168;51.684;6.954;2023-04-01T00:18:47;9.90;41.80
6270;DHT22;3168;51.684;6.954;2023-04-01T00:21:13;9.80;43.50
6270;DHT22;3168;51.684;6.954;2023-04-01T00:23:38;9.80;46.30
6270;DHT22;3168;51.684;6.954;2023-04-01T00:26:04;9.80;48.20
6270;DHT22;3168;51.684;6.954;2023-04-01T00:28:31;9.70;53.50
6270;DHT22;3168;51.684;6.954;2023-04-01T00:30:57;9.70;53.60
6270;DHT22;3168;51.684;6.954;2023-04-01T00:33:23;9.80;55.30
6270;DHT22;3168;51.684;6.954;2023-04-01T00:35:48;9.70;55.30
6270;DHT22;3168;51.684;6.954;2023-04-01T00:38:14;9.70;58.20
6270;DHT22;3168;51.684;6.954;2023-04-01T00:40:42;9.70;59.60
6270;DHT22;3168;51.684;6.954;2023-04-01T00:43:12;9.80;59.70
6270;DHT22;3168;51.684;6.954;2023-04-01T00:45:38;9.80;58.30
6270;DHT22;3168;51.684;6.954;2023-04-01T00:48:05;9.80;57.10
6270;DHT22;3168;51.684;6.954;2023-04-01T00:50:29;9.80;56.20
6270;DHT22;3168;51.684;6.954;2023-04-01T00:52:56;9.80;56.90
6270;DHT22;3168;51.684;6.954;2023-04-01T00:55:22;9.70;56.80
6270;DHT22;3168;51.684;6.954;2023-04-01T00:57:48;9.80;57.10
6270;DHT22;3168;51.684;6.954;2023-04-01T01:00:15;9.80;58.70
6270;DHT22;3168;51.684;6.954;2023-04-01T01:02:41;9.70;58.50
6270;DHT22;3168;51.684;6.954;2023-04-01T01:05:06;9.80;57.40
6270;DHT22;3168;51.684;6.954;2023-04-01T01:07:59;9.70;57.00
6270;DHT22;3168;51.684;6.954;2023-04-01T01:10:26;9.80;59.70
6270;DHT22;3168;51.684;6.954;2023-04-01T01:13:10;9.80;57.40
6270;DHT22;3168;51.684;6.954;2023-04-01T01:15:41;9.70;60.10
6270;DHT22;3168;51.684;6.954;2023-04-01T01:20:57;9.70;59.10
6270;DHT22;3168;51.684;6.954;2023-04-01T01:23:33;9.80;61.20
6270;DHT22;3168;51.684;6.954;2023-04-01T01:31:34;9.60;60.70
6270;DHT22;3168;51.684;6.954;2023-04-01T01:34:25;9.70;61.30
6270;DHT22;3168;51.684;6.954;2023-04-01T01:36:48;9.60;64.50
6270;DHT22;3168;51.684;6.954;2023-04-01T01:39:14;9.60;65.80
6270;DHT22;3168;51.684;6.954;2023-04-01T01:41:41;9.60;68.60
6270;DHT22;3168;51.684;6.954;2023-04-01T01:44:06;9.60;71.70
6270;DHT22;3168;51.684;6.954;2023-04-01T01:46:32;9.50;78.40
6270;DHT22;3168;51.684;6.954;2023-04-01T01:48:59;9.50;78.30
6270;DHT22;3168;51.684;6.954;2023-04-01T01:51:24;9.50;82.70
6270;DHT22;3168;51.684;6.954;2023-04-01T01:53:50;9.50;87.70
6270;DHT22;3168;51.684;6.954;2023-04-01T01:56:16;9.50;87.40
6270;DHT22;3168;51.684;6.954;2023-04-01T01:58:45;9.40;90.00
6270;DHT22;3168;51.684;6.954;2023-04-01T02:01:15;9.40;92.00
6270;DHT22;3168;51.684;6.954;2023-04-01T02:03:39;9.40;94.10
6270;DHT22;3168;51.684;6.954;2023-04-01T02:06:06;9.40;94.70
6270;DHT22;3168;51.684;6.954;2023-04-01T02:08:34;9.40;94.80
6270;DHT22;3168;51.684;6.954;2023-04-01T02:11:02;9.40;96.30
6270;DHT22;3168;51.684;6.954;2023-04-01T02:13:33;9.40;96.10
6270;DHT22;3168;51.684;6.954;2023-04-01T02:15:57;9.40;97.30
6270;DHT22;3168;51.684;6.954;2023-04-01T02:18:24;9.40;96.70
6270;DHT22;3168;51.684;6.954;2023-04-01T02:20:50;9.40;97.30
6270;DHT22;3168;51.684;6.954;2023-04-01T02:23:16;9.40;96.10
6270;DHT22;3168;51.684;6.954;2023-04-01T02:25:41;9.40;94.90
6270;DHT22;3168;51.684;6.954;2023-04-01T02:28:07;9.40;94.80
6270;DHT22;3168;51.684;6.954;2023-04-01T02:30:34;9.40;94.70
6270;DHT22;3168;51.684;6.954;2023-04-01T02:32:59;9.40;94.80
6270;DHT22;3168;51.684;6.954;2023-04-01T02:35:25;9.50;95.00
6270;DHT22;3168;51.684;6.954;2023-04-01T02:37:51;9.50;94.80
6270;DHT22;3168;51.684;6.954;2023-04-01T02:40:16;9.50;94.80
6270;DHT22;3168;51.684;6.954;2023-04-01T02:42:42;9.50;94.80
6270;DHT22;3168;51.684;6.954;2023-04-01T02:45:09;9.50;93.60
6270;DHT22;3168;51.684;6.954;2023-04-01T02:47:35;9.50;91.00
6270;DHT22;3168;51.684;6.954;2023-04-01T02:50:01;9.50;87.20
6270;DHT22;3168;51.684;6.954;2023-04-01T02:52:27;9.50;82.70
6270;DHT22;3168;51.684;6.954;2023-04-01T02:54:52;9.50;79.20
6270;DHT22;3168;51.684;6.954;2023-04-01T02:57:18;9.50;77.90
6270;DHT22;3168;51.684;6.954;2023-04-01T02:59:44;9.50;78.00
6270;DHT22;3168;51.684;6.954;2023-04-01T03:02:10;9.50;75.70
6270;DHT22;3168;51.684;6.954;2023-04-01T03:04:35;9.50;76.40
6270;DHT22;3168;51.684;6.954;2023-04-01T03:07:01;9.50;77.20
6270;DHT22;3168;51.684;6.954;2023-04-01T03:09:27;9.50;79.40
6270;DHT22;3168;51.684;6.954;2023-04-01T03:11:53;9.50;79.40
6270;DHT22;3168;51.684;6.954;2023-04-01T03:14:19;9.50;81.40
6270;DHT22;3168;51.684;6.954;2023-04-01T03:16:45;9.50;83.10
6270;DHT22;3168;51.684;6.954;2023-04-01T03:19:10;9.50;84.90
6270;DHT22;3168;51.684;6.954;2023-04-01T03:21:36;9.50;87.90
6270;DHT22;3168;51.684;6.954;2023-04-01T03:24:02;9.50;88.10
6270;DHT22;3168;51.684;6.954;2023-04-01T03:26:28;9.40;89.40
6270;DHT22;3168;51.684;6.954;2023-04-01T03:28:55;9.40;90.70
6270;DHT22;3168;51.684;6.954;2023-04-01T03:31:20;9.40;91.40
6270;DHT22;3168;51.684;6.954;2023-04-01T03:33:46;9.40;92.50
6270;DHT22;3168;51.684;6.954;2023-04-01T03:36:11;9.40;92.90
6270;DHT22;3168;51.684;6.954;2023-04-01T03:38:37;9.40;94.20
6270;DHT22;3168;51.684;6.954;2023-04-01T03:41:03;9.50;94.30
6270;DHT22;3168;51.684;6.954;2023-04-01T03:43:29;9.40;94.60
6270;DHT22;3168;51.684;6.954;2023-04-01T03:45:55;9.50;94.80
6270;DHT22;3168;51.684;6.954;2023-04-01T03:48:20;9.40;95.80
6270;DHT22;3168;51.684;6.954;2023-04-01T03:50:46;9.40;96.60
6270;DHT22;3168;51.684;6.954;2023-04-01T03:53:12;9.40;97.60
6270;DHT22;3168;51.684;6.954;2023-04-01T03:55:38;9.40;98.40
6270;DHT22;3168;51.684;6.954;2023-04-01T03:58:04;9.40;99.20
6270;DHT22;3168;51.684;6.954;2023-04-01T04:00:30;9.40;99.90
6270;DHT22;3168;51.684;6.954;2023-04-01T04:02:56;9.50;99.90
6270;DHT22;3168;51.684;6.954;2023-04-01T04:05:23;9.50;99.90
6270;DHT22;3168;51.684;6.954;2023-04-01T04:07:48;9.50;99.90
6270;DHT22;3168;51.684;6.954;2023-04-01T04:10:14;9.50;99.90
6270;DHT22;3168;51.684;6.954;2023-04-01T04:12:40;9.50;99.90
6270;DHT22;3168;51.684;6.954;2023-04-01T04:15:07;9.50;99.90
6270;DHT22;3168;51.684;6.954;2023-04-01T04:17:33;9.50;99.90
6270;DHT22;3168;51.684;6.954;2023-04-01T04:19:59;9.50;99.90
6270;DHT22;3168;51.684;6.954;2023-04-01T04:22:25;9.40;99.90
6270;DHT22;3168;51.684;6.954;2023-04-01T04:24:50;9.50;99.90
6270;DHT22;3168;51.684;6.954;2023-04-01T04:27:16;9.50;99.90
6270;DHT22;3168;51.684;6.954;2023-04-01T04:29:42;9.50;99.90
6270;DHT22;3168;51.684;6.954;2023-04-01T04:32:08;9.50;99.90
6270;DHT22;3168;51.684;6.954;2023-04-01T04:34:34;9.50;99.90
6270;DHT22;3168;51.684;6.954;2023-04-01T04:37:00;9.50;99.90
6270;DHT22;3168;51.684;6.954;2023-04-01T04:39:25;9.50;99.90
6270;DHT22;3168;51.684;6.954;2023-04-01T04:41:51;9.50;99.90
6270;DHT22;3168;51.684;6.954;2023-04-01T04:44:17;9.40;99.90
6270;DHT22;3168;51.684;6.954;2023-04-01T04:46:43;9.40;99.90
6270;DHT22;3168;51.684;6.954;2023-04-01T04:49:09;9.40;99.90
6270;DHT22;3168;51.684;6.954;2023-04-01T04:51:35;9.40;99.90
6270;DHT22;3168;51.684;6.954;2023-04-01T04:54:01;9.40;99.90
6270;DHT22;3168;51.684;6.954;2023-04-01T04:56:26;9.40;99.90
6270;DHT22;3168;51.684;6.954;2023-04-01T04:58:52;9.40;99.90
6270;DHT22;3168;51.684;6.954;2023-04-01T05:01:18;9.50;99.90
6270;DHT22;3168;51.684;6.954;2023-04-01T05:03:45;9.40;99.90
6270;DHT22;3168;51.684;6.954;2023-04-01T05:06:11;9.40;99.90
6270;DHT22;3168;51.684;6.954;2023-04-01T05:08:36;9.40;99.90
6270;DHT22;3168;51.684;6.954;2023-04-01T05:11:02;9.50;99.90
6270;DHT22;3168;51.684;6.954;2023-04-01T05:13:28;9.40;99.90
6270;DHT22;3168;51.684;6.954;2023-04-01T05:15:54;9.40;99.90
6270;DHT22;3168;51.684;6.954;2023-04-01T05:18:20;9.40;99.90
6270;DHT22;3168;51.684;6.954;2023-04-01T05:20:47;9.40;99.90
6270;DHT22;3168;51.684;6.954;2023-04-01T05:23:12;9.40;99.90
6270;DHT22;3168;51.684;6.954;2023-04-01T05:25:38;9.40;99.90
6270;DHT22;3168;51.684;6.954;2023-04-01T05:28:04;9.40;99.90
6270;DHT22;3168;51.684;6.954;2023-04-01T05:30:30;9.40;99.90
6270;DHT22;3168;51.684;6.954;2023-04-01T05:32:56;9.30;99.90
6270;DHT22;3168;51.684;6.954;2023-04-01T05:35:21;9.30;99.90
6270;DHT22;3168;51.684;6.954;2023-04-01T05:37:47;9.30;99.90
6270;DHT22;3168;51.684;6.954;2023-04-01T05:40:13;9.40;99.90
6270;DHT22;3168;51.684;6.954;2023-04-01T05:42:39;9.40;99.90
6270;DHT22;3168;51.684;6.954;2023-04-01T05:45:06;9.40;99.90
6270;DHT22;3168;51.684;6.954;2023-04-01T05:47:31;9.40;99.90
6270;DHT22;3168;51.684;6.954;2023-04-01T05:49:57;9.40;99.90
6270;DHT22;3168;51.684;6.954;2023-04-01T05:52:23;9.40;99.90
6270;DHT22;3168;51.684;6.954;2023-04-01T05:54:49;9.40;99.90
6270;DHT22;3168;51.684;6.954;2023-04-01T05:57:15;9.40;99.90
6270;DHT22;3168;51.684;6.954;2023-04-01T05:59:41;9.40;99.90
6270;DHT22;3168;51.684;6.954;2023-04-01T06:02:08;9.40;99.90
6270;DHT22;3168;51.684;6.954;2023-04-01T06:04:33;9.40;99.90
6270;DHT22;3168;51.684;6.954;2023-04-01T06:06:58;9.40;99.90
6270;DHT22;3168;51.684;6.954;2023-04-01T06:09:26;9.40;99.90
6270;DHT22;3168;51.684;6.954;2023-04-01T06:14:38;9.40;99.90
6270;DHT22;3168;51.684;6.954;2023-04-01T06:22:42;9.40;99.90
6270;DHT22;3168;51.684;6.954;2023-04-01T06:25:10;9.40;99.90
6270;DHT22;3168;51.684;6.954;2023-04-01T06:30:36;9.40;99.90
6270;DHT22;3168;51.684;6.954;2023-04-01T06:33:14;9.40;99.90
6270;DHT22;3168;51.684;6.954;2023-04-01T06:38:39;9.40;99.90
6270;DHT22;3168;51.684;6.954;2023-04-01T06:41:08;9.50;99.90
6270;DHT22;3168;51.684;6.954;2023-04-01T06:44:13;9.50;99.90
6270;DHT22;3168;51.684;6.954;2023-04-01T06:46:58;9.40;99.90
6270;DHT22;3168;51.684;6.954;2023-04-01T06:54:48;9.50;99.90
6270;DHT22;3168;51.684;6.954;2023-04-01T06:57:29;9.50;99.90
6270;DHT22;3168;51.684;6.954;2023-04-01T06:59:54;9.50;99.90
6270;DHT22;3168;51.684;6.954;2023-04-01T07:02:22;9.50;99.90
6270;DHT22;3168;51.684;6.954;2023-04-01T07:04:46;9.50;99.90
6270;DHT22;3168;51.684;6.954;2023-04-01T07:07:19;9.50;99.90
6270;DHT22;3168;51.684;6.954;2023-04-01T07:09:43;9.50;99.90
6270;DHT22;3168;51.684;6.954;2023-04-01T07:12:37;9.50;99.90
6270;DHT22;3168;51.684;6.954;2023-04-01T07:15:11;9.50;99.90
6270;DHT22;3168;51.684;6.954;2023-04-01T07:17:31;9.60;99.90
6270;DHT22;3168;51.684;6.954;2023-04-01T07:20:17;9.60;99.90
6270;DHT22;3168;51.684;6.954;2023-04-01T07:22:41;9.60;99.90
6270;DHT22;3168;51.684;6.954;2023-04-01T07:25:13;9.70;99.90
6270;DHT22;3168;51.684;6.954;2023-04-01T07:27:38;9.60;99.90
6270;DHT22;3168;51.684;6.954;2023-04-01T07:30:13;9.60;99.90
6270;DHT22;3168;51.684;6.954;2023-04-01T07:32:49;9.60;99.90
6270;DHT22;3168;51.684;6.954;2023-04-01T07:35:24;9.60;99.90
6270;DHT22;3168;51.684;6.954;2023-04-01T07:37:58;9.60;99.90
6270;DHT22;3168;51.684;6.954;2023-04-01T07:40:42;9.60;99.90
6270;DHT22;3168;51.684;6.954;2023-04-01T07:45:43;9.60;99.90
6270;DHT22;3168;51.684;6.954;2023-04-01T07:48:13;9.60;99.90
6270;DHT22;3168;51.684;6.954;2023-04-01T07:50:41;9.70;99.90
6270;DHT22;3168;51.684;6.954;2023-04-01T07:53:25;9.70;99.90
6270;DHT22;3168;51.684;6.954;2023-04-01T07:56:05;9.70;99.90
6270;DHT22;3168;51.684;6.954;2023-04-01T07:58:52;9.70;99.90
6270;DHT22;3168;51.684;6.954;2023-04-01T08:01:29;9.70;99.90
6270;DHT22;3168;51.684;6.954;2023-04-01T08:03:56;9.70;99.90
6270;DHT22;3168;51.684;6.954;2023-04-01T08:06:41;9.70;99.90
6270;DHT22;3168;51.684;6.954;2023-04-01T08:09:21;9.70;99.90
6270;DHT22;3168;51.684;6.954;2023-04-01T08:11:58;9.80;99.90
6270;DHT22;3168;51.684;6.954;2023-04-01T08:14:32;9.70;99.90
6270;DHT22;3168;51.684;6.954;2023-04-01T08:17:36;9.70;99.90
6270;DHT22;3168;51.684;6.954;2023-04-01T08:20:16;9.80;99.90
6270;DHT22;3168;51.684;6.954;2023-04-01T08:22:41;9.80;99.90
6270;DHT22;3168;51.684;6.954;2023-04-01T08:25:06;9.80;99.90
6270;DHT22;3168;51.684;6.954;2023-04-01T08:27:36;9.90;99.90
6270;DHT22;3168;51.684;6.954;2023-04-01T08:30:23;9.90;99.90
6270;DHT22;3168;51.684;6.954;2023-04-01T08:32:48;9.80;99.90
6270;DHT22;3168;51.684;6.954;2023-04-01T08:35:17;9.80;99.90
6270;DHT22;3168;51.684;6.954;2023-04-01T08:37:40;9.80;99.90
6270;DHT22;3168;51.684;6.954;2023-04-01T08:40:33;9.80;99.90
6270;DHT22;3168;51.684;6.954;2023-04-01T08:43:04;9.80;99.90
6270;DHT22;3168;51.684;6.954;2023-04-01T08:45:38;9.80;99.90
6270;DHT22;3168;51.684;6.954;2023-04-01T08:48:12;9.90;99.90
6270;DHT22;3168;51.684;6.954;2023-04-01T08:59:15;9.80;99.90
6270;DHT22;3168;51.684;6.954;2023-04-01T09:01:45;9.90;99.90
6270;DHT22;3168;51.684;6.954;2023-04-01T09:04:58;9.90;99.90
6270;DHT22;3168;51.684;6.954;2023-04-01T09:07:34;9.90;99.90
6270;DHT22;3168;51.684;6.954;2023-04-01T09:10:06;10.00;99.90
6270;DHT22;3168;51.684;6.954;2023-04-01T09:12:39;10.00;99.90
6270;DHT22;3168;51.684;6.954;2023-04-01T09:16:18;10.10;99.90
6270;DHT22;3168;51.684;6.954;2023-04-01T09:18:02;10.10;99.90
6270;DHT22;3168;51.684;6.954;2023-04-01T09:23:35;10.30;99.90
6270;DHT22;3168;51.684;6.954;2023-04-01T09:26:13;10.20;99.90
6270;DHT22;3168;51.684;6.954;2023-04-01T09:29:09;10.20;99.90
6270;DHT22;3168;51.684;6.954;2023-04-01T09:31:45;10.20;99.90
6270;DHT22;3168;51.684;6.954;2023-04-01T09:34:15;10.20;99.90
6270;DHT22;3168;51.684;6.954;2023-04-01T09:36:46;10.30;99.90
6270;DHT22;3168;51.684;6.954;2023-04-01T09:39:25;10.20;99.90
6270;DHT22;3168;51.684;6.954;2023-04-01T09:44:59;10.40;99.90
6270;DHT22;3168;51.684;6.954;2023-04-01T09:47:50;10.40;99.90
6270;DHT22;3168;51.684;6.954;2023-04-01T09:50:24;10.30;99.90
6270;DHT22;3168;51.684;6.954;2023-04-01T09:52:54;10.40;99.90
6270;DHT22;3168;51.684;6.954;2023-04-01T09:58:16;10.40;99.90
6270;DHT22;3168;51.684;6.954;2023-04-01T10:00:50;10.40;99.90
6270;DHT22;3168;51.684;6.954;2023-04-01T10:06:45;10.40;99.90
6270;DHT22;3168;51.684;6.954;2023-04-01T10:11:45;10.40;99.90
6270;DHT22;3168;51.684;6.954;2023-04-01T10:17:00;10.50;99.90
6270;DHT22;3168;51.684;6.954;2023-04-01T10:22:37;10.60;99.90
6270;DHT22;3168;51.684;6.954;2023-04-01T10:25:39;10.50;99.90
6270;DHT22;3168;51.684;6.954;2023-04-01T10:30:37;10.40;99.90
6270;DHT22;3168;51.684;6.954;2023-04-01T10:33:19;10.50;99.90
6270;DHT22;3168;51.684;6.954;2023-04-01T10:35:55;10.50;99.90
6270;DHT22;3168;51.684;6.954;2023-04-01T10:38:45;10.50;99.90
6270;DHT22;3168;51.684;6.954;2023-04-01T10:41:17;10.50;99.90
6270;DHT22;3168;51.684;6.954;2023-04-01T10:46:27;10.50;99.90
6270;DHT22;3168;51.684;6.954;2023-04-01T10:57:46;10.60;99.90
6270;DHT22;3168;51.684;6.954;2023-04-01T11:00:32;10.60;99.90
6270;DHT22;3168;51.684;6.954;2023-04-01T11:06:06;10.70;99.90
6270;DHT22;3168;51.684;6.954;2023-04-01T11:09:05;10.60;99.90
6270;DHT22;3168;51.684;6.954;2023-04-01T11:11:43;10.60;99.90
6270;DHT22;3168;51.684;6.954;2023-04-01T11:17:14;10.60;99.90
6270;DHT22;3168;51.684;6.954;2023-04-01T11:20:28;10.60;99.90
6270;DHT22;3168;51.684;6.954;2023-04-01T11:22:41;10.60;99.90
6270;DHT22;3168;51.684;6.954;2023-04-01T11:25:09;10.60;99.90
6270;DHT22;3168;51.684;6.954;2023-04-01T11:28:04;10.70;99.90
6270;DHT22;3168;51.684;6.954;2023-04-01T11:36:11;10.70;99.90
6270;DHT22;3168;51.684;6.954;2023-04-01T11:38:57;10.70;99.90
6270;DHT22;3168;51.684;6.954;2023-04-01T11:41:36;10.70;99.90
6270;DHT22;3168;51.684;6.954;2023-04-01T11:49:34;10.70;99.90
6270;DHT22;3168;51.684;6.954;2023-04-01T11:52:18;10.60;99.90
6270;DHT22;3168;51.684;6.954;2023-04-01T11:54:53;10.70;99.90
6270;DHT22;3168;51.684;6.954;2023-04-01T12:08:13;10.80;99.90
6270;DHT22;3168;51.684;6.954;2023-04-01T12:10:44;10.80;99.90
6270;DHT22;3168;51.684;6.954;2023-04-01T12:13:16;10.70;99.90
6270;DHT22;3168;51.684;6.954;2023-04-01T12:15:54;10.70;99.90
6270;DHT22;3168;51.684;6.954;2023-04-01T12:18:33;10.70;99.90
6270;DHT22;3168;51.684;6.954;2023-04-01T12:20:57;10.80;99.90
6270;DHT22;3168;51.684;6.954;2023-04-01T12:26:23;10.70;99.90
6270;DHT22;3168;51.684;6.954;2023-04-01T12:28:50;10.60;99.90
6270;DHT22;3168;51.684;6.954;2023-04-01T12:31:34;10.60;99.90
6270;DHT22;3168;51.684;6.954;2023-04-01T12:34:03;10.60;99.90
6270;DHT22;3168;51.684;6.954;2023-04-01T12:37:50;10.60;99.90
6270;DHT22;3168;51.684;6.954;2023-04-01T12:39:47;10.50;99.90
6270;DHT22;3168;51.684;6.954;2023-04-01T12:42:35;10.50;99.90
6270;DHT22;3168;51.684;6.954;2023-04-01T12:45:35;10.50;99.90
6270;DHT22;3168;51.684;6.954;2023-04-01T12:48:01;10.40;99.90
6270;DHT22;3168;51.684;6.954;2023-04-01T12:50:30;10.50;99.90
6270;DHT22;3168;51.684;6.954;2023-04-01T12:53:02;10.50;99.90
6270;DHT22;3168;51.684;6.954;2023-04-01T12:55:35;10.50;99.90
6270;DHT22;3168;51.684;6.954;2023-04-01T12:58:24;10.50;99.90
6270;DHT22;3168;51.684;6.954;2023-04-01T13:01:04;10.40;99.90
6270;DHT22;3168;51.684;6.954;2023-04-01T13:04:21;10.50;99.90
6270;DHT22;3168;51.684;6.954;2023-04-01T13:09:40;10.40;99.90
6270;DHT22;3168;51.684;6.954;2023-04-01T13:12:19;10.40;99.90
6270;DHT22;3168;51.684;6.954;2023-04-01T13:17:52;10.50;99.90
6270;DHT22;3168;51.684;6.954;2023-04-01T13:25:41;10.40;99.90
6270;DHT22;3168;51.684;6.954;2023-04-01T13:28:09;10.40;99.90
6270;DHT22;3168;51.684;6.954;2023-04-01T13:31:02;10.40;99.90
6270;DHT22;3168;51.684;6.954;2023-04-01T13:36:17;10.40;99.90
6270;DHT22;3168;51.684;6.954;2023-04-01T13:38:54;10.40;99.90
6270;DHT22;3168;51.684;6.954;2023-04-01T13:41:33;10.40;99.90
6270;DHT22;3168;51.684;6.954;2023-04-01T13:44:00;10.50;99.90
6270;DHT22;3168;51.684;6.954;2023-04-01T13:49:38;10.50;99.90
6270;DHT22;3168;51.684;6.954;2023-04-01T13:51:53;10.60;99.90
6270;DHT22;3168;51.684;6.954;2023-04-01T13:54:33;10.60;99.90
6270;DHT22;3168;51.684;6.954;2023-04-01T13:57:20;10.80;99.90
6270;DHT22;3168;51.684;6.954;2023-04-01T13:59:59;10.80;99.90
6270;DHT22;3168;51.684;6.954;2023-04-01T14:02:38;10.90;99.90
6270;DHT22;3168;51.684;6.954;2023-04-01T14:06:06;10.90;99.90
6270;DHT22;3168;51.684;6.954;2023-04-01T14:08:02;10.80;99.90
6270;DHT22;3168;51.684;6.954;2023-04-01T14:10:31;10.90;99.90
6270;DHT22;3168;51.684;6.954;2023-04-01T14:13:09;10.90;99.90
6270;DHT22;3168;51.684;6.954;2023-04-01T14:18:30;10.90;99.90
6270;DHT22;3168;51.684;6.954;2023-04-01T14:23:45;10.80;99.90
6270;DHT22;3168;51.684;6.954;2023-04-01T14:29:32;10.80;99.90
6270;DHT22;3168;51.684;6.954;2023-04-01T14:34:59;10.90;99.90
6270;DHT22;3168;51.684;6.954;2023-04-01T14:37:36;11.00;99.90
6270;DHT22;3168;51.684;6.954;2023-04-01T14:40:05;10.90;99.90
6270;DHT22;3168;51.684;6.954;2023-04-01T14:42:37;10.90;99.90
6270;DHT22;3168;51.684;6.954;2023-04-01T14:45:25;10.90;99.90
6270;DHT22;3168;51.684;6.954;2023-04-01T14:48:07;11.00;99.90
6270;DHT22;3168;51.684;6.954;2023-04-01T14:50:41;10.90;99.90
6270;DHT22;3168;51.684;6.954;2023-04-01T14:53:11;10.80;98.60
6270;DHT22;3168;51.684;6.954;2023-04-01T14:55:31;10.80;98.70
6270;DHT22;3168;51.684;6.954;2023-04-01T14:58:00;10.70;99.90
6270;DHT22;3168;51.684;6.954;2023-04-01T15:00:24;10.70;99.90
6270;DHT22;3168;51.684;6.954;2023-04-01T15:03:01;10.80;99.90
6270;DHT22;3168;51.684;6.954;2023-04-01T15:05:55;10.80;99.90
6270;DHT22;3168;51.684;6.954;2023-04-01T15:08:25;10.80;99.90
6270;DHT22;3168;51.684;6.954;2023-04-01T15:13:58;10.80;99.90
6270;DHT22;3168;51.684;6.954;2023-04-01T15:16:41;10.80;99.90
6270;DHT22;3168;51.684;6.954;2023-04-01T15:19:14;10.80;99.90
6270;DHT22;3168;51.684;6.954;2023-04-01T15:21:54;10.80;99.90
6270;DHT22;3168;51.684;6.954;2023-04-01T15:24:20;10.70;99.90
6270;DHT22;3168;51.684;6.954;2023-04-01T15:27:25;10.80;99.90
6270;DHT22;3168;51.684;6.954;2023-04-01T15:29:38;10.90;99.90
6270;DHT22;3168;51.684;6.954;2023-04-01T15:34:49;10.90;99.90
6270;DHT22;3168;51.684;6.954;2023-04-01T15:37:32;10.90;99.90
6270;DHT22;3168;51.684;6.954;2023-04-01T15:40:07;10.90;99.90
6270;DHT22;3168;51.684;6.954;2023-04-01T15:42:35;10.80;99.90
6270;DHT22;3168;51.684;6.954;2023-04-01T15:45:14;10.90;99.90
6270;DHT22;3168;51.684;6.954;2023-04-01T15:47:42;10.90;99.90
6270;DHT22;3168;51.684;6.954;2023-04-01T15:50:21;10.80;99.90
6270;DHT22;3168;51.684;6.954;2023-04-01T15:53:17;10.90;99.90
6270;DHT22;3168;51.684;6.954;2023-04-01T15:58:20;10.80;99.90
6270;DHT22;3168;51.684;6.954;2023-04-01T16:00:46;10.80;99.90
6270;DHT22;3168;51.684;6.954;2023-04-01T16:03:22;11.10;99.90
6270;DHT22;3168;51.684;6.954;2023-04-01T16:06:11;11.20;99.90
6270;DHT22;3168;51.684;6.954;2023-04-01T16:08:53;11.10;99.90
6270;DHT22;3168;51.684;6.954;2023-04-01T16:14:10;10.90;99.90
6270;DHT22;3168;51.684;6.954;2023-04-01T16:16:44;11.00;99.90
6270;DHT22;3168;51.684;6.954;2023-04-01T16:19:23;11.10;99.90
6270;DHT22;3168;51.684;6.954;2023-04-01T16:21:49;11.10;99.90
6270;DHT22;3168;51.684;6.954;2023-04-01T16:24:24;11.10;99.90
6270;DHT22;3168;51.684;6.954;2023-04-01T16:26:55;11.10;99.90
6270;DHT22;3168;51.684;6.954;2023-04-01T16:29:27;11.10;99.90
6270;DHT22;3168;51.684;6.954;2023-04-01T16:31:55;11.00;99.90
6270;DHT22;3168;51.684;6.954;2023-04-01T16:34:21;11.10;99.90
6270;DHT22;3168;51.684;6.954;2023-04-01T16:37:17;11.10;99.90
6270;DHT22;3168;51.684;6.954;2023-04-01T16:39:45;11.10;99.90
6270;DHT22;3168;51.684;6.954;2023-04-01T16:42:31;11.10;99.90
6270;DHT22;3168;51.684;6.954;2023-04-01T16:44:55;11.10;99.90
6270;DHT22;3168;51.684;6.954;2023-04-01T16:47:22;11.20;99.90
6270;DHT22;3168;51.684;6.954;2023-04-01T16:49:52;11.20;99.90
6270;DHT22;3168;51.684;6.954;2023-04-01T16:52:34;11.30;99.90
6270;DHT22;3168;51.684;6.954;2023-04-01T16:54:48;11.40;99.90
6270;DHT22;3168;51.684;6.954;2023-04-01T16:57:15;11.30;99.90
6270;DHT22;3168;51.684;6.954;2023-04-01T16:59:46;11.10;99.90
6270;DHT22;3168;51.684;6.954;2023-04-01T17:02:10;11.10;99.90
6270;DHT22;3168;51.684;6.954;2023-04-01T17:04:44;11.10;99.90
6270;DHT22;3168;51.684;6.954;2023-04-01T17:10:10;11.20;99.90
6270;DHT22;3168;51.684;6.954;2023-04-01T17:12:37;11.10;99.90
6270;DHT22;3168;51.684;6.954;2023-04-01T17:15:25;11.10;99.90
6270;DHT22;3168;51.684;6.954;2023-04-01T17:17:58;11.00;99.90
6270;DHT22;3168;51.684;6.954;2023-04-01T17:20:40;11.00;99.90
6270;DHT22;3168;51.684;6.954;2023-04-01T17:28:32;11.10;99.90
6270;DHT22;3168;51.684;6.954;2023-04-01T17:34:22;11.00;99.90
6270;DHT22;3168;51.684;6.954;2023-04-01T17:37:04;11.00;99.90
6270;DHT22;3168;51.684;6.954;2023-04-01T17:39:39;11.00;99.90
6270;DHT22;3168;51.684;6.954;2023-04-01T17:42:10;11.00;99.90
6270;DHT22;3168;51.684;6.954;2023-04-01T17:50:29;10.90;99.90
6270;DHT22;3168;51.684;6.954;2023-04-01T17:53:03;10.80;99.90
6270;DHT22;3168;51.684;6.954;2023-04-01T17:55:48;10.80;99.90
6270;DHT22;3168;51.684;6.954;2023-04-01T17:58:20;10.80;99.90
6270;DHT22;3168;51.684;6.954;2023-04-01T18:01:02;10.70;99.90
6270;DHT22;3168;51.684;6.954;2023-04-01T18:03:37;10.70;99.90
6270;DHT22;3168;51.684;6.954;2023-04-01T18:06:14;10.60;99.90
6270;DHT22;3168;51.684;6.954;2023-04-01T18:08:44;10.60;99.90
6270;DHT22;3168;51.684;6.954;2023-04-01T18:15:02;10.30;99.90
6270;DHT22;3168;51.684;6.954;2023-04-01T18:19:35;10.30;99.90
6270;DHT22;3168;51.684;6.954;2023-04-01T18:22:08;10.10;99.90
6270;DHT22;3168;51.684;6.954;2023-04-01T18:24:26;10.00;99.90
6270;DHT22;3168;51.684;6.954;2023-04-01T18:27:00;10.20;99.90
6270;DHT22;3168;51.684;6.954;2023-04-01T18:29:27;10.00;99.90
6270;DHT22;3168;51.684;6.954;2023-04-01T18:31:56;10.00;99.90
6270;DHT22;3168;51.684;6.954;2023-04-01T18:35:41;9.90;99.90
6270;DHT22;3168;51.684;6.954;2023-04-01T18:37:24;10.00;99.90
6270;DHT22;3168;51.684;6.954;2023-04-01T18:39:49;9.90;99.90
6270;DHT22;3168;51.684;6.954;2023-04-01T18:45:17;9.90;99.90
6270;DHT22;3168;51.684;6.954;2023-04-01T18:47:43;9.80;99.90
6270;DHT22;3168;51.684;6.954;2023-04-01T18:50:14;9.80;99.90
6270;DHT22;3168;51.684;6.954;2023-04-01T18:52:40;9.80;99.90
6270;DHT22;3168;51.684;6.954;2023-04-01T18:55:28;9.70;99.90
6270;DHT22;3168;51.684;6.954;2023-04-01T18:57:51;9.70;99.90
6270;DHT22;3168;51.684;6.954;2023-04-01T19:00:21;9.70;99.90
6270;DHT22;3168;51.684;6.954;2023-04-01T19:02:50;9.60;99.80
6270;DHT22;3168;51.684;6.954;2023-04-01T19:05:16;9.60;99.00
6270;DHT22;3168;51.684;6.954;2023-04-01T19:07:41;9.50;98.70
6270;DHT22;3168;51.684;6.954;2023-04-01T19:13:06;9.40;95.50
6270;DHT22;3168;51.684;6.954;2023-04-01T19:15:46;9.40;96.50
6270;DHT22;3168;51.684;6.954;2023-04-01T19:18:53;9.30;94.20
6270;DHT22;3168;51.684;6.954;2023-04-01T19:21:01;9.30;94.40
6270;DHT22;3168;51.684;6.954;2023-04-01T19:26:26;9.30;95.10
6270;DHT22;3168;51.684;6.954;2023-04-01T19:28:58;9.30;95.90
6270;DHT22;3168;51.684;6.954;2023-04-01T19:31:31;9.30;96.60
6270;DHT22;3168;51.684;6.954;2023-04-01T19:34:07;9.20;95.10
6270;DHT22;3168;51.684;6.954;2023-04-01T19:36:48;9.20;94.70
6270;DHT22;3168;51.684;6.954;2023-04-01T19:39:49;9.10;94.80